sensor_id;sensor_type;location;lat;lon;timestamp;pressure;altitude;pressure_sealevel;temperature;humidity
80102;BME280;69407;44.966;19.622;2023-11-19T09:36:04;101409.25;;;15.74;35.28
80102;BME280;69407;44.966;19.622;2023-11-19T09:38:30;101413.34;;;14.25;36.29
80102;BME280;69407;44.966;19.622;2023-11-19T09:40:55;101402.66;;;15.15;34.42
80102;BME280;69407;44.966;19.622;2023-11-19T09:43:22;101398.38;;;14.42;37.25
80102;BME280;69407;44.966;19.622;2023-11-19T09:45:49;101402.19;;;15.07;36.20
80102;BME280;69407;44.966;19.622;2023-11-19T09:48:18;101415.84;;;11.84;40.01
80102;BME280;69407;44.966;19.622;2023-11-19T09:50:46;101421.50;;;12.42;43.53
80102;BME280;69407;44.966;19.622;2023-11-19T09:53:11;101400.47;;;15.06;38.37
80102;BME280;69407;44.966;19.622;2023-11-19T09:55:37;101397.06;;;15.86;36.01
80102;BME280;69407;44.966;19.622;2023-11-19T09:58:03;101392.09;;;14.61;40.59
80102;BME280;69407;44.966;19.622;2023-11-19T10:00:30;101384.28;;;13.47;41.38
80102;BME280;69407;44.966;19.622;2023-11-19T10:02:56;101374.16;;;13.55;40.40
80102;BME280;69407;44.966;19.622;2023-11-19T10:05:23;101366.50;;;11.35;45.19
80102;BME280;69407;44.966;19.622;2023-11-19T10:07:50;101344.09;;;12.54;42.67
80102;BME280;69407;44.966;19.622;2023-11-19T10:10:16;101333.91;;;12.66;44.86
80102;BME280;69407;44.966;19.622;2023-11-19T10:12:45;101310.06;;;11.34;47.53
80102;BME280;69407;44.966;19.622;2023-11-19T10:15:20;101292.19;;;11.41;45.38
80102;BME280;69407;44.966;19.622;2023-11-19T10:17:47;101264.06;;;13.62;39.05
80102;BME280;69407;44.966;19.622;2023-11-19T10:20:13;101253.69;;;14.96;36.90
80102;BME280;69407;44.966;19.622;2023-11-19T10:22:39;101249.97;;;13.04;39.85
80102;BME280;69407;44.966;19.622;2023-11-19T10:25:23;101270.19;;;12.47;44.08
80102;BME280;69407;44.966;19.622;2023-11-19T10:27:53;101286.13;;;13.06;40.30
80102;BME280;69407;44.966;19.622;2023-11-19T10:30:26;101287.38;;;13.56;40.54
80102;BME280;69407;44.966;19.622;2023-11-19T10:33:08;101303.38;;;12.35;43.15
80102;BME280;69407;44.966;19.622;2023-11-19T10:35:36;101284.97;;;11.44;44.81
80102;BME280;69407;44.966;19.622;2023-11-19T10:38:14;101266.88;;;11.79;44.59
80102;BME280;69407;44.966;19.622;2023-11-19T10:40:43;101267.50;;;10.94;45.97
80102;BME280;69407;44.966;19.622;2023-11-19T10:43:09;101273.09;;;12.00;44.50
80102;BME280;69407;44.966;19.622;2023-11-19T10:45:35;101266.97;;;12.40;42.72
80102;BME280;69407;44.966;19.622;2023-11-19T10:48:02;101264.06;;;15.18;37.87
80102;BME280;69407;44.966;19.622;2023-11-19T10:50:35;101242.09;;;19.09;31.23
80102;BME280;69407;44.966;19.622;2023-11-19T10:53:02;101236.56;;;18.86;31.04
80102;BME280;69407;44.966;19.622;2023-11-19T10:55:35;101237.19;;;17.17;31.04
80102;BME280;69407;44.966;19.622;2023-11-19T10:58:05;101231.22;;;18.73;29.90
80102;BME280;69407;44.966;19.622;2023-11-19T11:00:38;101230.31;;;14.18;36.29
80102;BME280;69407;44.966;19.622;2023-11-19T11:03:10;101227.34;;;15.86;34.41
80102;BME280;69407;44.966;19.622;2023-11-19T11:05:37;101229.63;;;15.31;35.16
80102;BME280;69407;44.966;19.622;2023-11-19T11:08:06;101229.63;;;15.15;35.50
80102;BME280;69407;44.966;19.622;2023-11-19T11:10:38;101211.25;;;14.44;36.44
80102;BME280;69407;44.966;19.622;2023-11-19T11:13:05;101215.22;;;13.47;38.58
80102;BME280;69407;44.966;19.622;2023-11-19T11:15:31;101187.94;;;14.65;38.13
80102;BME280;69407;44.966;19.622;2023-11-19T11:18:01;101167.19;;;19.44;30.97
80102;BME280;69407;44.966;19.622;2023-11-19T11:20:31;101163.56;;;19.08;29.01
80102;BME280;69407;44.966;19.622;2023-11-19T11:23:24;101158.81;;;18.37;31.50
80102;BME280;69407;44.966;19.622;2023-11-19T11:31:09;101168.28;;;15.94;33.34
80102;BME280;69407;44.966;19.622;2023-11-19T11:36:20;101176.72;;;14.60;39.15
80102;BME280;69407;44.966;19.622;2023-11-19T11:38:49;101191.44;;;13.07;39.86
80102;BME280;69407;44.966;19.622;2023-11-19T11:41:22;101178.06;;;14.34;39.28
80102;BME280;69407;44.966;19.622;2023-11-19T11:43:50;101166.50;;;19.29;30.26
80102;BME280;69407;44.966;19.622;2023-11-19T11:49:03;101166.44;;;14.02;36.70
80102;BME280;69407;44.966;19.622;2023-11-19T11:57:07;101167.28;;;14.02;40.63
80102;BME280;69407;44.966;19.622;2023-11-19T11:59:42;101175.06;;;14.07;39.76
80102;BME280;69407;44.966;19.622;2023-11-19T12:02:09;101175.50;;;13.81;39.47
80102;BME280;69407;44.966;19.622;2023-11-19T12:04:36;101166.75;;;13.78;40.03
80102;BME280;69407;44.966;19.622;2023-11-19T12:07:16;101157.31;;;13.18;40.27
80102;BME280;69407;44.966;19.622;2023-11-19T12:09:47;101147.03;;;13.65;40.20
80102;BME280;69407;44.966;19.622;2023-11-19T12:12:26;101140.00;;;13.47;39.80
80102;BME280;69407;44.966;19.622;2023-11-19T12:20:05;101128.16;;;13.71;40.10
80102;BME280;69407;44.966;19.622;2023-11-19T12:22:41;101118.59;;;12.95;40.67
80102;BME280;69407;44.966;19.622;2023-11-19T12:25:08;101123.16;;;12.35;41.01
80102;BME280;69407;44.966;19.622;2023-11-19T12:27:35;101136.16;;;12.41;42.25
80102;BME280;69407;44.966;19.622;2023-11-19T12:30:01;101133.94;;;13.45;41.60
80102;BME280;69407;44.966;19.622;2023-11-19T12:32:40;101140.41;;;12.64;41.73
80102;BME280;69407;44.966;19.622;2023-11-19T12:35:07;101130.53;;;12.49;45.37
80102;BME280;69407;44.966;19.622;2023-11-19T12:40:21;101118.03;;;12.70;45.59
80102;BME280;69407;44.966;19.622;2023-11-19T12:42:50;101108.94;;;12.75;47.71
80102;BME280;69407;44.966;19.622;2023-11-19T12:45:16;101112.66;;;12.90;45.72
80102;BME280;69407;44.966;19.622;2023-11-19T12:47:43;101095.63;;;12.77;46.32
80102;BME280;69407;44.966;19.622;2023-11-19T12:50:09;101099.56;;;12.49;47.42
80102;BME280;69407;44.966;19.622;2023-11-19T12:52:36;101082.88;;;12.08;45.55
80102;BME280;69407;44.966;19.622;2023-11-19T12:55:23;101065.44;;;12.42;46.08
80102;BME280;69407;44.966;19.622;2023-11-19T12:57:49;101060.19;;;12.02;46.15
80102;BME280;69407;44.966;19.622;2023-11-19T13:00:19;101054.63;;;11.88;49.41
80102;BME280;69407;44.966;19.622;2023-11-19T13:05:34;101045.75;;;11.89;47.81
80102;BME280;69407;44.966;19.622;2023-11-19T13:10:29;101048.31;;;11.70;50.87
80102;BME280;69407;44.966;19.622;2023-11-19T13:15:29;101055.69;;;11.64;48.32
80102;BME280;69407;44.966;19.622;2023-11-19T13:17:54;101052.25;;;12.21;49.10
80102;BME280;69407;44.966;19.622;2023-11-19T13:20:20;101040.03;;;11.98;51.74
80102;BME280;69407;44.966;19.622;2023-11-19T13:22:59;101052.81;;;11.28;49.52
80102;BME280;69407;44.966;19.622;2023-11-19T13:25:26;101045.81;;;11.67;52.22
80102;BME280;69407;44.966;19.622;2023-11-19T13:27:52;101038.94;;;11.84;51.97
80102;BME280;69407;44.966;19.622;2023-11-19T13:30:17;101028.19;;;11.87;52.48
80102;BME280;69407;44.966;19.622;2023-11-19T13:32:43;101026.59;;;12.59;50.34
80102;BME280;69407;44.966;19.622;2023-11-19T13:35:11;101031.28;;;12.54;48.08
80102;BME280;69407;44.966;19.622;2023-11-19T13:37:38;101027.31;;;13.53;46.38
80102;BME280;69407;44.966;19.622;2023-11-19T13:40:04;101030.72;;;13.89;45.74
80102;BME280;69407;44.966;19.622;2023-11-19T13:42:29;101035.97;;;12.85;45.31
80102;BME280;69407;44.966;19.622;2023-11-19T13:44:55;101043.34;;;11.63;48.96
80102;BME280;69407;44.966;19.622;2023-11-19T13:47:21;101032.09;;;11.98;50.94
80102;BME280;69407;44.966;19.622;2023-11-19T13:49:47;101024.78;;;12.24;49.73
80102;BME280;69407;44.966;19.622;2023-11-19T13:52:12;101030.44;;;11.96;52.11
80102;BME280;69407;44.966;19.622;2023-11-19T13:54:38;101025.97;;;12.17;50.73
80102;BME280;69407;44.966;19.622;2023-11-19T13:57:03;101022.59;;;12.32;51.38
80102;BME280;69407;44.966;19.622;2023-11-19T13:59:30;101036.50;;;12.18;52.03
80102;BME280;69407;44.966;19.622;2023-11-19T14:01:57;101041.31;;;12.48;51.94
80102;BME280;69407;44.966;19.622;2023-11-19T14:04:23;101041.88;;;12.17;52.57
80102;BME280;69407;44.966;19.622;2023-11-19T14:06:48;101039.38;;;11.93;53.59
80102;BME280;69407;44.966;19.622;2023-11-19T14:09:14;101044.16;;;12.43;51.18
80102;BME280;69407;44.966;19.622;2023-11-19T14:11:40;101048.91;;;12.37;52.32
80102;BME280;69407;44.966;19.622;2023-11-19T14:14:07;101041.03;;;11.76;54.31
80102;BME280;69407;44.966;19.622;2023-11-19T14:16:33;101053.47;;;11.73;54.99
80102;BME280;69407;44.966;19.622;2023-11-19T14:18:59;101045.78;;;11.27;56.76
80102;BME280;69407;44.966;19.622;2023-11-19T14:21:25;101039.50;;;11.50;57.27
80102;BME280;69407;44.966;19.622;2023-11-19T14:23:52;101047.38;;;11.31;57.50
80102;BME280;69407;44.966;19.622;2023-11-19T14:26:18;101051.81;;;10.65;58.04
80102;BME280;69407;44.966;19.622;2023-11-19T14:28:43;101030.97;;;10.35;60.53
80102;BME280;69407;44.966;19.622;2023-11-19T14:31:09;101021.66;;;10.70;60.02
80102;BME280;69407;44.966;19.622;2023-11-19T14:33:34;101028.22;;;10.13;60.30
80102;BME280;69407;44.966;19.622;2023-11-19T14:36:01;101022.84;;;10.40;62.65
80102;BME280;69407;44.966;19.622;2023-11-19T14:38:27;101031.03;;;9.85;64.65
80102;BME280;69407;44.966;19.622;2023-11-19T14:40:52;101032.47;;;9.69;65.93
80102;BME280;69407;44.966;19.622;2023-11-19T14:43:18;101035.28;;;9.64;67.99
80102;BME280;69407;44.966;19.622;2023-11-19T14:45:43;101024.41;;;9.74;69.25
80102;BME280;69407;44.966;19.622;2023-11-19T14:48:09;101038.91;;;9.62;70.65
80102;BME280;69407;44.966;19.622;2023-11-19T14:50:35;101046.16;;;10.28;70.61
80102;BME280;69407;44.966;19.622;2023-11-19T14:53:01;101044.72;;;10.20;68.32
80102;BME280;69407;44.966;19.622;2023-11-19T14:55:28;101046.69;;;9.90;70.73
80102;BME280;69407;44.966;19.622;2023-11-19T14:57:54;101044.16;;;9.87;72.87
80102;BME280;69407;44.966;19.622;2023-11-19T15:00:19;101042.22;;;9.42;74.14
80102;BME280;69407;44.966;19.622;2023-11-19T15:02:46;101032.75;;;9.61;74.03
80102;BME280;69407;44.966;19.622;2023-11-19T15:05:12;101043.09;;;9.67;75.62
80102;BME280;69407;44.966;19.622;2023-11-19T15:07:38;101039.50;;;9.45;75.11
80102;BME280;69407;44.966;19.622;2023-11-19T15:10:06;101037.81;;;9.43;74.83
80102;BME280;69407;44.966;19.622;2023-11-19T15:12:38;101029.31;;;9.34;75.87
80102;BME280;69407;44.966;19.622;2023-11-19T15:15:08;101038.72;;;9.42;77.27
80102;BME280;69407;44.966;19.622;2023-11-19T15:17:43;101037.97;;;9.38;78.73
80102;BME280;69407;44.966;19.622;2023-11-19T15:20:09;101046.41;;;9.23;80.66
80102;BME280;69407;44.966;19.622;2023-11-19T15:22:34;101049.44;;;9.10;81.59
80102;BME280;69407;44.966;19.622;2023-11-19T15:25:00;101048.03;;;9.00;81.71
80102;BME280;69407;44.966;19.622;2023-11-19T15:27:26;101037.59;;;8.96;81.98
80102;BME280;69407;44.966;19.622;2023-11-19T15:29:52;101045.00;;;8.57;82.43
80102;BME280;69407;44.966;19.622;2023-11-19T15:32:17;101045.22;;;8.50;85.01
80102;BME280;69407;44.966;19.622;2023-11-19T15:34:43;101046.56;;;8.64;85.87
80102;BME280;69407;44.966;19.622;2023-11-19T15:37:09;101046.47;;;8.93;85.49
80102;BME280;69407;44.966;19.622;2023-11-19T15:39:37;101035.47;;;8.80;87.29
80102;BME280;69407;44.966;19.622;2023-11-19T15:42:03;101035.97;;;8.65;88.41
80102;BME280;69407;44.966;19.622;2023-11-19T15:44:28;101041.59;;;8.53;89.50
80102;BME280;69407;44.966;19.622;2023-11-19T15:46:54;101043.81;;;8.39;90.16
80102;BME280;69407;44.966;19.622;2023-11-19T15:49:20;101043.34;;;8.54;89.33
80102;BME280;69407;44.966;19.622;2023-11-19T15:51:45;101030.63;;;8.39;89.78
80102;BME280;69407;44.966;19.622;2023-11-19T15:54:11;101044.41;;;8.47;91.42
80102;BME280;69407;44.966;19.622;2023-11-19T15:56:36;101043.91;;;8.34;91.41
80102;BME280;69407;44.966;19.622;2023-11-19T15:59:02;101041.13;;;8.40;91.53
80102;BME280;69407;44.966;19.622;2023-11-19T16:01:30;101043.06;;;8.32;92.84
80102;BME280;69407;44.966;19.622;2023-11-19T16:03:56;101039.28;;;8.11;95.33
80102;BME280;69407;44.966;19.622;2023-11-19T16:06:21;101040.81;;;8.20;95.60
80102;BME280;69407;44.966;19.622;2023-11-19T16:08:48;101043.84;;;8.06;96.58
80102;BME280;69407;44.966;19.622;2023-11-19T16:11:15;101042.88;;;8.09;96.14
80102;BME280;69407;44.966;19.622;2023-11-19T16:13:42;101035.72;;;7.83;99.42
80102;BME280;69407;44.966;19.622;2023-11-19T16:16:08;101033.47;;;8.02;97.91
80102;BME280;69407;44.966;19.622;2023-11-19T16:18:33;101031.88;;;7.94;97.99
80102;BME280;69407;44.966;19.622;2023-11-19T16:20:59;101029.34;;;7.91;98.57
80102;BME280;69407;44.966;19.622;2023-11-19T16:23:24;101037.41;;;7.85;99.31
80102;BME280;69407;44.966;19.622;2023-11-19T16:25:52;101029.47;;;7.87;98.62
80102;BME280;69407;44.966;19.622;2023-11-19T16:28:18;101036.72;;;7.79;99.23
80102;BME280;69407;44.966;19.622;2023-11-19T16:30:44;101042.75;;;7.82;99.32
80102;BME280;69407;44.966;19.622;2023-11-19T16:33:10;101049.88;;;7.46;100.00
80102;BME280;69407;44.966;19.622;2023-11-19T16:35:35;101053.84;;;7.61;100.00
80102;BME280;69407;44.966;19.622;2023-11-19T16:38:01;101051.56;;;7.81;100.00
80102;BME280;69407;44.966;19.622;2023-11-19T16:40:27;101077.00;;;7.81;100.00
80102;BME280;69407;44.966;19.622;2023-11-19T16:42:52;101068.97;;;7.85;100.00
80102;BME280;69407;44.966;19.622;2023-11-19T16:45:18;101061.44;;;8.04;100.00
80102;BME280;69407;44.966;19.622;2023-11-19T16:47:44;101051.84;;;8.03;100.00
80102;BME280;69407;44.966;19.622;2023-11-19T16:50:12;101057.88;;;7.76;99.84
80102;BME280;69407;44.966;19.622;2023-11-19T16:52:41;101042.50;;;7.91;100.00
80102;BME280;69407;44.966;19.622;2023-11-19T16:55:07;101044.44;;;8.16;100.00
80102;BME280;69407;44.966;19.622;2023-11-19T16:57:40;101035.91;;;7.77;100.00
80102;BME280;69407;44.966;19.622;2023-11-19T17:00:07;101041.91;;;8.13;100.00
80102;BME280;69407;44.966;19.622;2023-11-19T17:02:32;101044.56;;;8.11;100.00
80102;BME280;69407;44.966;19.622;2023-11-19T17:04:58;101039.22;;;8.14;100.00
80102;BME280;69407;44.966;19.622;2023-11-19T17:07:23;101048.09;;;8.10;100.00
80102;BME280;69407;44.966;19.622;2023-11-19T17:09:51;101055.09;;;8.11;100.00
80102;BME280;69407;44.966;19.622;2023-11-19T17:12:16;101038.94;;;8.23;99.99
80102;BME280;69407;44.966;19.622;2023-11-19T17:14:41;101039.22;;;8.14;100.00
80102;BME280;69407;44.966;19.622;2023-11-19T17:17:07;101040.94;;;8.15;100.00
80102;BME280;69407;44.966;19.622;2023-11-19T17:19:32;101033.81;;;8.19;99.31
80102;BME280;69407;44.966;19.622;2023-11-19T17:21:58;101036.66;;;8.13;99.27
80102;BME280;69407;44.966;19.622;2023-11-19T17:24:24;101033.91;;;8.16;100.00
80102;BME280;69407;44.966;19.622;2023-11-19T17:26:49;101023.69;;;8.05;100.00
80102;BME280;69407;44.966;19.622;2023-11-19T17:29:15;101020.84;;;7.82;100.00
80102;BME280;69407;44.966;19.622;2023-11-19T17:31:43;101020.22;;;7.72;100.00
80102;BME280;69407;44.966;19.622;2023-11-19T17:34:09;101028.25;;;8.00;100.00
80102;BME280;69407;44.966;19.622;2023-11-19T17:36:35;101032.44;;;8.06;100.00
80102;BME280;69407;44.966;19.622;2023-11-19T17:39:01;101013.09;;;7.77;100.00
80102;BME280;69407;44.966;19.622;2023-11-19T17:41:29;101025.63;;;7.68;100.00
80102;BME280;69407;44.966;19.622;2023-11-19T17:43:55;101020.00;;;7.81;100.00
80102;BME280;69407;44.966;19.622;2023-11-19T17:46:20;101012.44;;;7.69;100.00
80102;BME280;69407;44.966;19.622;2023-11-19T17:48:46;101002.56;;;7.77;100.00
80102;BME280;69407;44.966;19.622;2023-11-19T17:51:12;101010.88;;;7.62;100.00
80102;BME280;69407;44.966;19.622;2023-11-19T17:53:38;101012.19;;;7.46;100.00
80102;BME280;69407;44.966;19.622;2023-11-19T17:56:04;101001.28;;;7.28;100.00
80102;BME280;69407;44.966;19.622;2023-11-19T17:58:30;100993.13;;;7.38;100.00
80102;BME280;69407;44.966;19.622;2023-11-19T18:00:57;100985.69;;;7.53;100.00
80102;BME280;69407;44.966;19.622;2023-11-19T18:03:22;100995.94;;;7.31;100.00
80102;BME280;69407;44.966;19.622;2023-11-19T18:05:48;100987.72;;;7.44;100.00
80102;BME280;69407;44.966;19.622;2023-11-19T18:08:14;100979.66;;;7.50;100.00
80102;BME280;69407;44.966;19.622;2023-11-19T18:10:43;100972.03;;;7.41;100.00
80102;BME280;69407;44.966;19.622;2023-11-19T18:13:08;100981.56;;;7.11;100.00
80102;BME280;69407;44.966;19.622;2023-11-19T18:15:34;100973.03;;;7.35;100.00
80102;BME280;69407;44.966;19.622;2023-11-19T18:18:00;100983.50;;;7.04;100.00
80102;BME280;69407;44.966;19.622;2023-11-19T18:20:26;100981.50;;;6.80;100.00
80102;BME280;69407;44.966;19.622;2023-11-19T18:22:51;100981.97;;;6.95;100.00
80102;BME280;69407;44.966;19.622;2023-11-19T18:25:19;100981.94;;;6.97;100.00
80102;BME280;69407;44.966;19.622;2023-11-19T18:27:49;100953.75;;;7.02;100.00
80102;BME280;69407;44.966;19.622;2023-11-19T18:30:15;100961.31;;;6.82;100.00
80102;BME280;69407;44.966;19.622;2023-11-19T18:32:41;100972.44;;;6.91;100.00
80102;BME280;69407;44.966;19.622;2023-11-19T18:35:08;100974.34;;;6.85;100.00
80102;BME280;69407;44.966;19.622;2023-11-19T18:37:38;100975.84;;;6.59;100.00
80102;BME280;69407;44.966;19.622;2023-11-19T18:40:05;100960.88;;;6.63;100.00
80102;BME280;69407;44.966;19.622;2023-11-19T18:42:30;100957.84;;;6.80;100.00
80102;BME280;69407;44.966;19.622;2023-11-19T18:44:56;100945.41;;;6.86;100.00
80102;BME280;69407;44.966;19.622;2023-11-19T18:47:21;100943.34;;;6.99;100.00
80102;BME280;69407;44.966;19.622;2023-11-19T18:49:47;100944.72;;;6.80;100.00
80102;BME280;69407;44.966;19.622;2023-11-19T18:52:15;100952.19;;;6.95;100.00
80102;BME280;69407;44.966;19.622;2023-11-19T18:54:40;100949.19;;;6.74;100.00
80102;BME280;69407;44.966;19.622;2023-11-19T18:57:06;100951.91;;;6.71;100.00
80102;BME280;69407;44.966;19.622;2023-11-19T18:59:31;100963.47;;;6.64;100.00
80102;BME280;69407;44.966;19.622;2023-11-19T19:01:57;100950.28;;;6.66;100.00
80102;BME280;69407;44.966;19.622;2023-11-19T19:04:23;100949.50;;;6.62;100.00
80102;BME280;69407;44.966;19.622;2023-11-19T19:06:48;100946.56;;;6.74;100.00
80102;BME280;69407;44.966;19.622;2023-11-19T19:09:14;100955.56;;;6.64;100.00
80102;BME280;69407;44.966;19.622;2023-11-19T19:11:44;100959.56;;;6.45;100.00
80102;BME280;69407;44.966;19.622;2023-11-19T19:14:09;100964.00;;;6.43;100.00
80102;BME280;69407;44.966;19.622;2023-11-19T19:16:39;100958.97;;;6.32;100.00
80102;BME280;69407;44.966;19.622;2023-11-19T19:19:04;100956.25;;;6.37;100.00
80102;BME280;69407;44.966;19.622;2023-11-19T19:21:30;100960.59;;;6.38;100.00
80102;BME280;69407;44.966;19.622;2023-11-19T19:23:56;100968.09;;;6.55;100.00
80102;BME280;69407;44.966;19.622;2023-11-19T19:26:28;100981.38;;;6.47;100.00
80102;BME280;69407;44.966;19.622;2023-11-19T19:28:56;100980.28;;;6.57;100.00
80102;BME280;69407;44.966;19.622;2023-11-19T19:31:22;100979.03;;;6.35;100.00
80102;BME280;69407;44.966;19.622;2023-11-19T19:33:50;100971.94;;;6.38;100.00
80102;BME280;69407;44.966;19.622;2023-11-19T19:36:22;100979.78;;;6.40;100.00
80102;BME280;69407;44.966;19.622;2023-11-19T19:38:48;100977.59;;;6.22;100.00
80102;BME280;69407;44.966;19.622;2023-11-19T19:41:13;100983.59;;;6.27;100.00
80102;BME280;69407;44.966;19.622;2023-11-19T19:43:39;100965.59;;;6.10;100.00
80102;BME280;69407;44.966;19.622;2023-11-19T19:46:06;100966.22;;;6.21;100.00
80102;BME280;69407;44.966;19.622;2023-11-19T19:48:34;100961.72;;;6.26;100.00
80102;BME280;69407;44.966;19.622;2023-11-19T19:51:00;100964.81;;;6.06;100.00
80102;BME280;69407;44.966;19.622;2023-11-19T19:53:27;100956.31;;;5.95;100.00
80102;BME280;69407;44.966;19.622;2023-11-19T19:55:53;100963.22;;;5.54;100.00
80102;BME280;69407;44.966;19.622;2023-11-19T19:58:22;100963.88;;;5.66;100.00
80102;BME280;69407;44.966;19.622;2023-11-19T20:00:47;100963.00;;;5.65;100.00
80102;BME280;69407;44.966;19.622;2023-11-19T20:03:13;100965.22;;;5.85;100.00
80102;BME280;69407;44.966;19.622;2023-11-19T20:05:39;100962.06;;;5.68;100.00
80102;BME280;69407;44.966;19.622;2023-11-19T20:08:06;100962.97;;;5.22;100.00
80102;BME280;69407;44.966;19.622;2023-11-19T20:10:32;100969.03;;;5.70;100.00
80102;BME280;69407;44.966;19.622;2023-11-19T20:12:59;100963.94;;;5.63;100.00
80102;BME280;69407;44.966;19.622;2023-11-19T20:15:26;100962.97;;;5.67;100.00
80102;BME280;69407;44.966;19.622;2023-11-19T20:17:52;100969.03;;;5.69;100.00
80102;BME280;69407;44.966;19.622;2023-11-19T20:20:17;100967.13;;;5.32;100.00
80102;BME280;69407;44.966;19.622;2023-11-19T20:22:43;100973.69;;;5.10;100.00
80102;BME280;69407;44.966;19.622;2023-11-19T20:25:09;100979.13;;;4.96;100.00
80102;BME280;69407;44.966;19.622;2023-11-19T20:27:35;100983.34;;;5.05;100.00
80102;BME280;69407;44.966;19.622;2023-11-19T20:30:01;100972.25;;;4.90;100.00
80102;BME280;69407;44.966;19.622;2023-11-19T20:32:28;100977.31;;;5.01;100.00
80102;BME280;69407;44.966;19.622;2023-11-19T20:34:53;100973.31;;;5.28;100.00
80102;BME280;69407;44.966;19.622;2023-11-19T20:37:19;100961.00;;;5.35;100.00
80102;BME280;69407;44.966;19.622;2023-11-19T20:39:44;100965.56;;;4.74;100.00
80102;BME280;69407;44.966;19.622;2023-11-19T20:42:10;100958.94;;;4.52;100.00
80102;BME280;69407;44.966;19.622;2023-11-19T20:44:37;100958.38;;;4.30;100.00
80102;BME280;69407;44.966;19.622;2023-11-19T20:47:03;100953.25;;;4.79;100.00
80102;BME280;69407;44.966;19.622;2023-11-19T20:49:32;100954.16;;;5.26;100.00
80102;BME280;69407;44.966;19.622;2023-11-19T20:51:57;100954.91;;;4.85;100.00
80102;BME280;69407;44.966;19.622;2023-11-19T20:54:23;100949.84;;;5.23;100.00
80102;BME280;69407;44.966;19.622;2023-11-19T20:56:48;100951.63;;;5.20;100.00
80102;BME280;69407;44.966;19.622;2023-11-19T20:59:14;100952.06;;;4.97;100.00
80102;BME280;69407;44.966;19.622;2023-11-19T21:01:42;100957.94;;;5.11;100.00
80102;BME280;69407;44.966;19.622;2023-11-19T21:04:08;100951.63;;;5.20;100.00
80102;BME280;69407;44.966;19.622;2023-11-19T21:06:34;100949.88;;;5.20;100.00
80102;BME280;69407;44.966;19.622;2023-11-19T21:08:59;100949.44;;;4.98;100.00
80102;BME280;69407;44.966;19.622;2023-11-19T21:11:25;100943.41;;;4.92;100.00
80102;BME280;69407;44.966;19.622;2023-11-19T21:13:50;100952.88;;;5.00;100.00
80102;BME280;69407;44.966;19.622;2023-11-19T21:16:16;100955.34;;;4.57;100.00
80102;BME280;69407;44.966;19.622;2023-11-19T21:18:41;100961.19;;;4.75;100.00
80102;BME280;69407;44.966;19.622;2023-11-19T21:21:07;100954.72;;;4.94;100.00
80102;BME280;69407;44.966;19.622;2023-11-19T21:23:32;100950.09;;;5.10;100.00
80102;BME280;69407;44.966;19.622;2023-11-19T21:25:58;100944.28;;;4.92;100.00
80102;BME280;69407;44.966;19.622;2023-11-19T21:28:28;100941.31;;;4.60;100.00
80102;BME280;69407;44.966;19.622;2023-11-19T21:30:58;100940.75;;;4.43;100.00
80102;BME280;69407;44.966;19.622;2023-11-19T21:33:27;100934.31;;;4.63;100.00
80102;BME280;69407;44.966;19.622;2023-11-19T21:35:53;100946.75;;;4.48;100.00
80102;BME280;69407;44.966;19.622;2023-11-19T21:38:19;100947.06;;;4.29;100.00
80102;BME280;69407;44.966;19.622;2023-11-19T21:40:50;100949.59;;;4.34;100.00
80102;BME280;69407;44.966;19.622;2023-11-19T21:43:19;100953.22;;;4.24;100.00
80102;BME280;69407;44.966;19.622;2023-11-19T21:45:45;100946.09;;;4.36;100.00
80102;BME280;69407;44.966;19.622;2023-11-19T21:48:10;100958.88;;;3.95;100.00
80102;BME280;69407;44.966;19.622;2023-11-19T21:50:36;100955.38;;;3.96;100.00
80102;BME280;69407;44.966;19.622;2023-11-19T21:53:02;100974.13;;;4.27;100.00
80102;BME280;69407;44.966;19.622;2023-11-19T21:55:27;100965.53;;;4.17;100.00
80102;BME280;69407;44.966;19.622;2023-11-19T21:57:54;100957.53;;;4.28;100.00
80102;BME280;69407;44.966;19.622;2023-11-19T22:00:19;100947.06;;;4.29;100.00
80102;BME280;69407;44.966;19.622;2023-11-19T22:02:45;100946.34;;;4.18;100.00
80102;BME280;69407;44.966;19.622;2023-11-19T22:05:11;100944.09;;;3.92;100.00
80102;BME280;69407;44.966;19.622;2023-11-19T22:07:37;100943.09;;;4.01;100.00
80102;BME280;69407;44.966;19.622;2023-11-19T22:10:02;100940.28;;;4.16;100.00
80102;BME280;69407;44.966;19.622;2023-11-19T22:12:29;100944.06;;;4.54;100.00
80102;BME280;69407;44.966;19.622;2023-11-19T22:14:56;100936.81;;;4.14;100.00
80102;BME280;69407;44.966;19.622;2023-11-19T22:17:21;100948.06;;;4.19;100.00
80102;BME280;69407;44.966;19.622;2023-11-19T22:19:47;100941.31;;;4.63;100.00
80102;BME280;69407;44.966;19.622;2023-11-19T22:22:13;100953.25;;;4.22;100.00
80102;BME280;69407;44.966;19.622;2023-11-19T22:24:40;100951.22;;;4.43;100.00
80102;BME280;69407;44.966;19.622;2023-11-19T22:27:05;100944.13;;;4.48;100.00
80102;BME280;69407;44.966;19.622;2023-11-19T22:29:31;100952.00;;;4.48;100.00
80102;BME280;69407;44.966;19.622;2023-11-19T22:31:58;100959.25;;;4.30;100.00
80102;BME280;69407;44.966;19.622;2023-11-19T22:34:24;100956.47;;;3.79;100.00
80102;BME280;69407;44.966;19.622;2023-11-19T22:36:51;100954.97;;;4.25;100.00
80102;BME280;69407;44.966;19.622;2023-11-19T22:39:16;100949.31;;;4.52;100.00
80102;BME280;69407;44.966;19.622;2023-11-19T22:41:42;100938.94;;;3.86;100.00
80102;BME280;69407;44.966;19.622;2023-11-19T22:44:08;100941.63;;;3.80;100.00
80102;BME280;69407;44.966;19.622;2023-11-19T22:46:34;100940.84;;;4.35;100.00